Danbury, Connecticut
Current Conditions -  °F | °C
As of 4:53 PM on Monday 20 Oct 2014 (Local Time) from KDXR Reporting Station
Clear Clear  
Wind Chill: 56°   Ceiling: Unl
Heat Index: 56°   Visibility: 10mi
Dew Point: 31°   Wind: 10mph
Humidity: 39%   Direction: 230°SW
Pressure: 29.98"   Gusts: NA
Location:  41.39°N, 73.45°W
Report Text: KDXR 202053Z 23009KT 10SM CLR 13/M01 A2998 RMK AO2 SLP154 T01331006 56014
Loading
Personal Weather Stations






























Interactive Weather Map
Tropical Storm Tracking
New forecast layout! Learn more

10-Day Weather Forecast

Advertisements
Track Severe Weather on mobile